Decoded Metar for KMPO (MT. POCONO in PA, USA) (IATA:MPO) | Meteo·Mobile Aviation Weather
aviador You're here:

KMPO Decoded Metar

MT. POCONO in PA, USA
Report Time2019-01-21 15:18:00
UTC Time2019-01-21 15:57:13
Flight Rules mvfr MVFR
Wind290° at 29 Gusting to 44 kt
W.Decomp.*RWY 31: 28.8 kt HW 3.5 kt LCW
RWY 23: 8.5 kt HW 27.7 kt RCW
W.Rank290° ranks 2
Current wind is above 290° avg. (8.8)
Visibility4828 m
Phenomena:Haze
Clouds:Overcast 014 Hf
Expected CloudBase > 1,200 ft AGL from Temp-Dew spread
Ceiling1,400 ft
Temp-21°C (ISA -32)
Dew Point-24°C (77% RH)
AAT-35.2°C
QNH1013 hPa
Density Alt-2,205 ft
Elevation1,893 ft
Report Wrong Elevation
Raw Report
KMPO 211518Z AUTO 29029G44KT 3SM HZ OVC014 M21/M24 A2990 RMK AO2
PK WND 30044/1504 T12061244 $=

Extra information for KMPO:More info

Metar Taf Metar & Taf Last 4 Metars F.Rules Stats Wind Profile Meteogram Temp Stats Airport Information Weather charts Add Link Nearby VenuesMetar ALERT Operation Metar Decoded Social comments

AIRNAV info for KMPO